createdAt,value
2022-08-05T00:03:00.663Z,13.5
2022-08-05T00:08:01.201Z,13.4
2022-08-05T00:12:57.230Z,13.3
2022-08-05T00:17:55.135Z,13.3
2022-08-05T00:22:56.071Z,13.4
2022-08-05T00:27:51.519Z,13.4
2022-08-05T00:32:49.906Z,13.3
2022-08-05T00:37:51.512Z,13.3
2022-08-05T00:42:48.366Z,13.1
2022-08-05T00:47:53.669Z,13
2022-08-05T00:52:45.372Z,12.9
2022-08-05T00:57:55.760Z,12.8
2022-08-05T01:02:39.550Z,12.7
2022-08-05T01:07:37.627Z,12.7
2022-08-05T01:12:35.688Z,12.6
2022-08-05T01:17:40.045Z,12.5
2022-08-05T01:22:31.987Z,12.6
2022-08-05T01:27:33.008Z,12.5
2022-08-05T01:32:28.304Z,12.4
2022-08-05T01:37:26.484Z,12.3
2022-08-05T01:42:24.409Z,12.2
2022-08-05T01:47:22.897Z,12.2
2022-08-05T01:52:20.770Z,12.1
2022-08-05T01:58:08.808Z,12.1
2022-08-05T02:02:17.736Z,12
2022-08-05T02:07:21.799Z,11.9
2022-08-05T02:12:13.768Z,11.9
2022-08-05T02:17:26.236Z,11.8
2022-08-05T02:22:09.883Z,11.7
2022-08-05T02:27:09.069Z,11.7
2022-08-05T02:32:06.231Z,11.6
2022-08-05T02:37:04.508Z,11.6
2022-08-05T02:42:02.253Z,11.5
2022-08-05T02:47:01.044Z,11.5
2022-08-05T02:52:03.280Z,11.4
2022-08-05T02:56:56.776Z,11.3
2022-08-05T03:01:54.927Z,11.2
2022-08-05T03:06:59.318Z,11.2
2022-08-05T03:11:54.145Z,11.2
2022-08-05T03:16:49.225Z,11.1
2022-08-05T03:21:49.021Z,11.2
2022-08-05T03:26:45.636Z,11.2
2022-08-05T03:31:55.507Z,11.3
2022-08-05T03:36:41.909Z,11.5
2022-08-05T03:41:45.312Z,11.9
2022-08-05T03:46:39.125Z,13
2022-08-05T03:52:35.539Z,14.8
2022-08-05T03:56:38.481Z,16.8
2022-08-05T04:01:38.344Z,17.9
2022-08-05T04:06:36.853Z,18.1
2022-08-05T04:11:47.822Z,18.7
2022-08-05T04:16:35.075Z,20.7
2022-08-05T04:22:05.650Z,22.7
2022-08-05T04:26:34.439Z,23.9
2022-08-05T04:31:37.605Z,24.7
2022-08-05T04:36:38.482Z,25.5
2022-08-05T04:41:34.294Z,25.7
2022-08-05T04:46:28.911Z,26
2022-08-05T04:51:30.430Z,25.3
2022-08-05T04:56:34.076Z,24.6
2022-08-05T05:01:33.972Z,24.7
2022-08-05T05:06:36.382Z,24.9
2022-08-05T05:11:21.034Z,24.6
2022-08-05T05:16:19.700Z,25.4
2022-08-05T05:21:17.764Z,26
2022-08-05T05:26:16.544Z,26.7
2022-08-05T05:31:15.300Z,27.1
2022-08-05T05:36:14.613Z,27.7
2022-08-05T05:41:12.736Z,28.4
2022-08-05T05:46:16.172Z,29.8
2022-08-05T05:51:15.338Z,30.3
2022-08-05T05:56:09.494Z,31.4
2022-08-05T06:01:12.522Z,31.7
2022-08-05T06:06:06.543Z,32
2022-08-05T06:11:05.009Z,32.6
2022-08-05T06:16:27.940Z,32.8
2022-08-05T06:21:05.182Z,33
2022-08-05T06:26:13.099Z,32.7
2022-08-05T06:31:01.902Z,33
2022-08-05T06:36:04.365Z,33.5
2022-08-05T06:40:59.432Z,32.7
2022-08-05T06:46:03.550Z,32.5
2022-08-05T06:50:56.933Z,34.2
2022-08-05T06:55:54.602Z,33.1
2022-08-05T07:00:52.589Z,33.5
2022-08-05T07:05:52.217Z,34.3
2022-08-05T07:10:52.236Z,34.4
2022-08-05T07:16:00.656Z,34.5
2022-08-05T07:20:47.480Z,35
2022-08-05T07:25:54.549Z,36
2022-08-05T07:30:44.550Z,36.3
2022-08-05T07:35:56.559Z,36.2
2022-08-05T07:40:44.368Z,36.7
2022-08-05T07:45:56.952Z,37
2022-08-05T07:50:38.276Z,37.6
2022-08-05T07:55:44.105Z,38.4
2022-08-05T08:00:35.653Z,39.4
2022-08-05T08:05:33.767Z,39.2
2022-08-05T08:10:31.597Z,39.5
2022-08-05T08:15:37.113Z,38.7
2022-08-05T08:20:44.713Z,38.5
2022-08-05T08:25:26.623Z,39
2022-08-05T08:30:30.300Z,38.3
2022-08-05T08:35:21.716Z,39
2022-08-05T08:40:19.507Z,38.7
2022-08-05T08:45:25.941Z,39
2022-08-05T08:50:30.076Z,39.1
2022-08-05T08:55:13.694Z,40.1
2022-08-05T09:00:12.114Z,40.1
2022-08-05T09:05:16.205Z,39.1
2022-08-05T09:10:07.822Z,38.9
2022-08-05T09:15:05.887Z,38.7
2022-08-05T09:20:04.951Z,37.7
2022-08-05T09:25:02.203Z,39.2
2022-08-05T09:30:03.378Z,38.9
2022-08-05T09:34:58.680Z,39.5
2022-08-05T09:39:57.887Z,40.8
2022-08-05T09:44:56.265Z,39.1
2022-08-05T09:49:54.697Z,39
2022-08-05T09:54:51.021Z,39.7
2022-08-05T09:59:48.229Z,39
2022-08-05T10:04:47.111Z,40.1
2022-08-05T10:09:45.624Z,40.1
2022-08-05T10:14:42.800Z,39.7
2022-08-05T10:20:03.374Z,39.5
2022-08-05T10:24:39.733Z,40
2022-08-05T10:30:06.273Z,39.5
2022-08-05T10:34:35.189Z,40.5
2022-08-05T10:39:58.613Z,39.9
2022-08-05T10:44:30.933Z,36.7
2022-08-05T10:49:26.692Z,32
2022-08-05T10:54:23.311Z,36.9
2022-08-05T11:00:01.534Z,39.7
2022-08-05T11:04:23.410Z,40
2022-08-05T11:09:24.153Z,40.2
2022-08-05T11:14:25.565Z,40.7
2022-08-05T11:20:09.719Z,40.8
2022-08-05T11:24:29.920Z,41.4
2022-08-05T11:29:12.485Z,38.1
2022-08-05T11:34:09.804Z,37.8
2022-08-05T11:39:07.298Z,36.2
2022-08-05T11:44:06.815Z,36.4
2022-08-05T11:49:00.492Z,37.4
2022-08-05T11:54:01.510Z,39.7
2022-08-05T11:59:00.334Z,39.9
2022-08-05T12:03:58.921Z,40.3
2022-08-05T12:08:57.497Z,40.1
2022-08-05T12:13:55.611Z,39.5
2022-08-05T12:18:53.564Z,39.5
2022-08-05T12:23:51.110Z,36.9
2022-08-05T12:28:45.126Z,32.9
2022-08-05T12:33:41.360Z,32.4
2022-08-05T12:38:43.730Z,38.5
2022-08-05T12:43:45.199Z,40
2022-08-05T12:48:44.000Z,40.2
2022-08-05T12:53:41.267Z,38.1
2022-08-05T12:58:52.801Z,37.6
2022-08-05T13:03:33.055Z,33.2
2022-08-05T13:08:28.708Z,31.1
2022-08-05T13:14:04.178Z,32.5
2022-08-05T13:18:29.175Z,36.9
2022-08-05T13:23:28.456Z,35.7
2022-08-05T13:28:26.234Z,34.8
2022-08-05T13:34:20.104Z,32.2
2022-08-05T13:38:28.575Z,33.8
2022-08-05T13:43:21.910Z,33.2
2022-08-05T13:48:56.776Z,33.8
2022-08-05T13:53:15.681Z,34.8
2022-08-05T13:58:13.553Z,35.2
2022-08-05T14:03:11.461Z,34.3
2022-08-05T14:08:11.426Z,33.8
2022-08-05T14:13:07.569Z,33.7
2022-08-05T14:18:05.490Z,33.3
2022-08-05T14:23:03.412Z,33
2022-08-05T14:28:01.576Z,32.4
2022-08-05T14:32:59.895Z,32.2
2022-08-05T14:37:58.260Z,32
2022-08-05T14:42:55.918Z,31.8
2022-08-05T14:48:02.552Z,31.9
2022-08-05T14:52:57.576Z,31.8
2022-08-05T14:57:54.173Z,31.7
2022-08-05T15:02:47.943Z,30.1
2022-08-05T15:08:05.937Z,29.6
2022-08-05T15:13:00.113Z,28.6
2022-08-05T15:17:45.335Z,27.6
2022-08-05T15:22:38.294Z,26.9
2022-08-05T15:27:36.213Z,26.4
2022-08-05T15:32:34.156Z,26.3
2022-08-05T15:38:09.066Z,26.5
2022-08-05T15:42:56.989Z,26.6
2022-08-05T15:47:29.162Z,26.5
2022-08-05T15:52:29.745Z,26.5
2022-08-05T15:57:26.284Z,26
2022-08-05T16:02:25.347Z,26.4
2022-08-05T16:07:22.760Z,26.4
2022-08-05T16:12:20.026Z,26.4
2022-08-05T16:17:18.455Z,26.6
2022-08-05T16:22:16.851Z,26.5
2022-08-05T16:27:15.872Z,26.2
2022-08-05T16:32:13.240Z,25.5
2022-08-05T16:38:02.217Z,25
2022-08-05T16:42:13.181Z,24.8
2022-08-05T16:47:07.358Z,24.2
2022-08-05T16:57:03.338Z,23.4
2022-08-05T17:02:01.517Z,22.9
2022-08-05T17:07:00.314Z,22.4
2022-08-05T17:11:59.568Z,21.9
2022-08-05T17:16:55.722Z,21.6
2022-08-05T17:21:53.681Z,21.2
2022-08-05T17:26:51.383Z,20.9
2022-08-05T17:31:57.527Z,20.6
2022-08-05T17:36:47.272Z,20.5
2022-08-05T17:42:18.799Z,20.3
2022-08-05T17:46:43.312Z,19.9
2022-08-05T17:51:40.972Z,19.6
2022-08-05T17:56:38.890Z,19.3
2022-08-05T18:01:42.095Z,19
2022-08-05T18:06:35.592Z,18.8
2022-08-05T18:11:34.098Z,18.6
2022-08-05T18:16:32.097Z,18.3
2022-08-05T18:22:07.933Z,18.3
2022-08-05T18:26:29.403Z,18.3
2022-08-05T18:31:32.896Z,18.4
2022-08-05T18:36:26.292Z,18.3
2022-08-05T18:41:54.731Z,18.5
2022-08-05T18:46:21.247Z,18.5
2022-08-05T18:52:02.591Z,18.2
2022-08-05T18:56:21.616Z,18
2022-08-05T19:01:18.058Z,17.9
2022-08-05T19:06:19.401Z,17.9
2022-08-05T19:11:11.910Z,17.7
2022-08-05T19:16:22.270Z,17.9
2022-08-05T19:21:08.451Z,17.9
2022-08-05T19:26:08.388Z,17.8
2022-08-05T19:31:04.902Z,17.7
2022-08-05T19:36:02.906Z,17.9
2022-08-05T19:41:01.167Z,17.6
2022-08-05T19:45:59.504Z,17.5
2022-08-05T19:50:57.762Z,17.5
2022-08-05T19:56:12.147Z,17.6
2022-08-05T20:00:54.446Z,17.6
2022-08-05T20:05:52.895Z,18
2022-08-05T20:10:51.211Z,17.7
2022-08-05T20:15:51.980Z,17.4
2022-08-05T20:20:47.037Z,17.4
2022-08-05T20:25:45.330Z,17
2022-08-05T20:30:43.244Z,16.9
2022-08-05T20:35:45.459Z,16.9
2022-08-05T20:40:39.782Z,16.9
2022-08-05T20:45:47.597Z,16.9
2022-08-05T20:50:38.672Z,17.1
2022-08-05T20:55:55.957Z,17.1
2022-08-05T21:00:40.570Z,17.1
2022-08-05T21:05:38.252Z,17.1
2022-08-05T21:10:28.885Z,16.8
2022-08-05T21:15:26.867Z,16.5
2022-08-05T21:20:33.096Z,16.8
2022-08-05T21:25:23.313Z,16.6
2022-08-05T21:30:21.387Z,16.5
2022-08-05T21:35:30.213Z,16.4
2022-08-05T21:40:17.742Z,16.3
2022-08-05T21:45:24.359Z,16.2
2022-08-05T21:50:13.780Z,16
2022-08-05T21:55:11.801Z,16
2022-08-05T22:00:11.043Z,15.8
2022-08-05T22:05:08.875Z,15.7
2022-08-05T22:10:05.537Z,15.6
2022-08-05T22:15:03.782Z,15.5
2022-08-05T22:20:11.419Z,15.6
2022-08-05T22:25:00.296Z,15.6
2022-08-05T22:29:58.395Z,15.8
2022-08-05T22:34:56.714Z,15.8
2022-08-05T22:39:54.996Z,15.6
2022-08-05T22:44:55.494Z,15.6
2022-08-05T22:50:17.524Z,15.3
2022-08-05T22:54:48.858Z,15.4
2022-08-05T22:59:52.033Z,15.4
2022-08-05T23:04:51.480Z,15.4
2022-08-05T23:09:52.986Z,15.3
2022-08-05T23:14:43.726Z,15.5
2022-08-05T23:19:41.969Z,15.1
2022-08-05T23:24:38.234Z,15.1
2022-08-05T23:29:36.747Z,14.8
2022-08-05T23:34:34.842Z,14.6
2022-08-05T23:39:44.698Z,14.7
2022-08-05T23:44:31.634Z,14.5
2022-08-05T23:49:34.037Z,14.4
2022-08-05T23:54:30.105Z,14.3
2022-08-05T23:59:27.714Z,14.3
